createdAt,value
2018-09-25T00:01:06.457Z,1031.12
2018-09-25T00:02:15.091Z,1031.09
2018-09-25T00:03:23.740Z,1031.09
2018-09-25T00:04:32.373Z,1031.11
2018-09-25T00:05:41.014Z,1031.14
2018-09-25T00:06:49.650Z,1031.14
2018-09-25T00:07:58.296Z,1031.11
2018-09-25T00:09:06.933Z,1031.11
2018-09-25T00:10:15.629Z,1031.14
2018-09-25T00:11:24.588Z,1031.13
2018-09-25T00:12:33.225Z,1031.11
2018-09-25T00:13:42.149Z,1031.09
2018-09-25T00:14:50.783Z,1031.1
2018-09-25T00:15:59.953Z,1031.1
2018-09-25T00:17:08.852Z,1031.1
2018-09-25T00:18:17.503Z,1031.12
2018-09-25T00:19:26.139Z,1031.13
2018-09-25T00:20:34.783Z,1031.12
2018-09-25T00:21:43.412Z,1031.15
2018-09-25T00:22:52.326Z,1031.22
2018-09-25T00:24:00.963Z,1031.2
2018-09-25T00:25:09.603Z,1031.22
2018-09-25T00:26:18.226Z,1031.17
2018-09-25T00:27:27.877Z,1031.24
2018-09-25T00:28:36.520Z,1031.2
2018-09-25T00:29:45.160Z,1031.19
2018-09-25T00:30:53.803Z,1031.2
2018-09-25T00:32:02.433Z,1031.16
2018-09-25T00:33:11.337Z,1031.22
2018-09-25T00:34:19.970Z,1031.17
2018-09-25T00:35:28.617Z,1031.17
2018-09-25T00:36:37.246Z,1031.17
2018-09-25T00:37:45.888Z,1031.15
2018-09-25T00:38:54.525Z,1031.14
2018-09-25T00:40:03.188Z,1031.17
2018-09-25T00:41:11.815Z,1031.18
2018-09-25T00:42:20.458Z,1031.27
2018-09-25T00:43:29.091Z,1031.28
2018-09-25T00:44:37.739Z,1031.29
2018-09-25T00:45:46.375Z,1031.29
2018-09-25T00:46:55.059Z,1031.35
2018-09-25T00:48:03.643Z,1031.3
2018-09-25T00:49:12.279Z,1031.33
2018-09-25T00:50:20.927Z,1031.35
2018-09-25T00:51:29.560Z,1031.36
2018-09-25T00:52:38.251Z,1031.34
2018-09-25T00:53:47.158Z,1031.29
2018-09-25T00:54:55.804Z,1031.33
2018-09-25T00:56:04.697Z,1031.32
2018-09-25T00:57:13.339Z,1031.36
2018-09-25T00:58:21.982Z,1031.38
2018-09-25T00:59:30.608Z,1031.36
2018-09-25T01:00:39.250Z,1031.37
2018-09-25T01:01:48.151Z,1031.35
2018-09-25T01:02:56.796Z,1031.32
2018-09-25T01:04:05.708Z,1031.34
2018-09-25T01:05:14.347Z,1031.34
2018-09-25T01:06:23.509Z,1031.34
2018-09-25T01:07:32.148Z,1031.4
2018-09-25T01:08:40.795Z,1031.38
2018-09-25T01:09:49.430Z,1031.35
2018-09-25T01:10:58.076Z,1031.33
2018-09-25T01:12:06.704Z,1031.39
2018-09-25T01:13:15.352Z,1031.38
2018-09-25T01:14:23.990Z,1031.36
2018-09-25T01:15:32.635Z,1031.41
2018-09-25T01:16:41.797Z,1031.39
2018-09-25T01:17:50.444Z,1031.4
2018-09-25T01:18:59.367Z,1031.41
2018-09-25T01:20:07.982Z,1031.43
2018-09-25T01:21:16.612Z,1031.41
2018-09-25T01:22:25.252Z,1031.41
2018-09-25T01:23:33.894Z,1031.43
2018-09-25T01:24:42.534Z,1031.41
2018-09-25T01:25:51.177Z,1031.44
2018-09-25T01:26:59.805Z,1031.47
2018-09-25T01:28:08.448Z,1031.44
2018-09-25T01:29:17.083Z,1031.42
2018-09-25T01:30:25.726Z,1031.46
2018-09-25T01:31:34.355Z,1031.49
2018-09-25T01:32:42.999Z,1031.53
2018-09-25T01:33:51.634Z,1031.49
2018-09-25T01:35:00.281Z,1031.49
2018-09-25T01:36:08.909Z,1031.46
2018-09-25T01:37:17.555Z,1031.48
2018-09-25T01:38:26.194Z,1031.47
2018-09-25T01:39:34.842Z,1031.44
2018-09-25T01:40:43.480Z,1031.42
2018-09-25T01:41:52.114Z,1031.43
2018-09-25T01:43:00.750Z,1031.39
2018-09-25T01:44:09.389Z,1031.45
2018-09-25T01:45:18.036Z,1031.42
2018-09-25T01:46:26.668Z,1031.43
2018-09-25T01:47:35.312Z,1031.44
2018-09-25T01:48:43.940Z,1031.44
2018-09-25T01:49:52.853Z,1031.43
2018-09-25T01:51:01.485Z,1031.38
2018-09-25T01:52:10.127Z,1031.42
2018-09-25T01:53:18.756Z,1031.41
2018-09-25T01:54:27.403Z,1031.41
2018-09-25T01:55:36.041Z,1031.46
2018-09-25T01:56:44.684Z,1031.42
2018-09-25T01:57:53.312Z,1031.43
2018-09-25T01:59:02.214Z,1031.42
2018-09-25T02:00:10.853Z,1031.42
2018-09-25T02:01:19.490Z,1031.46
2018-09-25T02:02:28.130Z,1031.46
2018-09-25T02:03:36.763Z,1031.43
2018-09-25T02:04:45.668Z,1031.4
2018-09-25T02:05:54.652Z,1031.43
2018-09-25T02:07:03.221Z,1031.4
2018-09-25T02:08:11.853Z,1031.4
2018-09-25T02:09:20.492Z,1031.4
2018-09-25T02:10:29.133Z,1031.41
2018-09-25T02:11:37.773Z,1031.44
2018-09-25T02:12:46.404Z,1031.44
2018-09-25T02:13:55.044Z,1031.49
2018-09-25T02:15:04.005Z,1031.52
2018-09-25T02:16:12.650Z,1031.56
2018-09-25T02:17:21.282Z,1031.54
2018-09-25T02:18:29.917Z,1031.55
2018-09-25T02:19:38.822Z,1031.54
2018-09-25T02:20:47.458Z,1031.53
2018-09-25T02:21:56.101Z,1031.52
2018-09-25T02:23:05.002Z,1031.48
2018-09-25T02:24:13.638Z,1031.52
2018-09-25T02:25:22.267Z,1031.57
2018-09-25T02:26:30.908Z,1031.61
2018-09-25T02:27:39.548Z,1031.53
2018-09-25T02:28:48.190Z,1031.56
2018-09-25T02:29:56.822Z,1031.57
2018-09-25T02:31:05.479Z,1031.57
2018-09-25T02:32:14.105Z,1031.59
2018-09-25T02:33:22.746Z,1031.59
2018-09-25T02:34:31.381Z,1031.61
2018-09-25T02:35:40.021Z,1031.6
2018-09-25T02:36:49.192Z,1031.61
2018-09-25T02:37:57.833Z,1031.64
2018-09-25T02:39:06.479Z,1031.64
2018-09-25T02:40:15.650Z,1031.65
2018-09-25T02:41:24.288Z,1031.61
2018-09-25T02:42:33.451Z,1031.64
2018-09-25T02:43:42.093Z,1031.62
2018-09-25T02:44:51.253Z,1031.64
2018-09-25T02:46:00.156Z,1031.59
2018-09-25T02:47:09.322Z,1031.63
2018-09-25T02:48:17.964Z,1031.64
2018-09-25T02:49:27.128Z,1031.62
2018-09-25T02:50:35.767Z,1031.61
2018-09-25T02:51:44.406Z,1031.62
2018-09-25T02:52:53.059Z,1031.62
2018-09-25T02:54:01.692Z,1031.66
2018-09-25T02:55:10.334Z,1031.65
2018-09-25T02:56:18.968Z,1031.63
2018-09-25T02:57:27.603Z,1031.67
2018-09-25T02:58:36.517Z,1031.63
2018-09-25T02:59:45.153Z,1031.62
2018-09-25T03:00:54.069Z,1031.64
2018-09-25T03:02:02.699Z,1031.67
2018-09-25T03:03:11.889Z,1031.7
2018-09-25T03:04:21.052Z,1031.71
2018-09-25T03:05:29.701Z,1031.74
2018-09-25T03:06:38.609Z,1031.73
2018-09-25T03:07:47.527Z,1031.7
2018-09-25T03:08:56.192Z,1031.66
2018-09-25T03:10:05.354Z,1031.57
2018-09-25T03:11:14.504Z,1031.58
2018-09-25T03:12:23.147Z,1031.57
2018-09-25T03:13:32.310Z,1031.63
2018-09-25T03:14:40.950Z,1031.63
2018-09-25T03:15:49.593Z,1031.65
2018-09-25T03:16:58.486Z,1031.64
2018-09-25T03:18:07.130Z,1031.63
2018-09-25T03:19:15.859Z,1031.64
2018-09-25T03:20:24.826Z,1031.65
2018-09-25T03:21:34.065Z,1031.64
2018-09-25T03:22:42.971Z,1031.67
2018-09-25T03:23:51.642Z,1031.61
2018-09-25T03:25:00.252Z,1031.61
2018-09-25T03:26:08.881Z,1031.61
2018-09-25T03:27:17.520Z,1031.6
2018-09-25T03:28:26.155Z,1031.57
2018-09-25T03:29:34.803Z,1031.57
2018-09-25T03:30:43.440Z,1031.58
2018-09-25T03:31:52.092Z,1031.57
2018-09-25T03:33:00.737Z,1031.62
2018-09-25T03:34:09.639Z,1031.65
2018-09-25T03:35:18.286Z,1031.62
2018-09-25T03:36:26.921Z,1031.61
2018-09-25T03:37:35.560Z,1031.58
2018-09-25T03:38:44.193Z,1031.59
2018-09-25T03:39:52.840Z,1031.56
2018-09-25T03:41:01.476Z,1031.58
2018-09-25T03:42:10.378Z,1031.62
2018-09-25T03:43:19.007Z,1031.6
2018-09-25T03:44:28.192Z,1031.62
2018-09-25T03:45:36.827Z,1031.58
2018-09-25T03:46:45.466Z,1031.59
2018-09-25T03:47:54.096Z,1031.59
2018-09-25T03:49:03.011Z,1031.6
2018-09-25T03:50:11.914Z,1031.58
2018-09-25T03:51:20.553Z,1031.61
2018-09-25T03:52:29.195Z,1031.6
2018-09-25T03:53:38.115Z,1031.59
2018-09-25T03:54:46.761Z,1031.62
2018-09-25T03:55:55.659Z,1031.59
2018-09-25T03:57:04.837Z,1031.58
2018-09-25T03:58:13.739Z,1031.6
2018-09-25T03:59:22.387Z,1031.59
2018-09-25T04:00:31.333Z,1031.58
2018-09-25T04:01:39.975Z,1031.64
2018-09-25T04:02:48.607Z,1031.64
2018-09-25T04:03:57.247Z,1031.69
2018-09-25T04:05:05.879Z,1031.66
2018-09-25T04:06:14.859Z,1031.67
2018-09-25T04:07:23.419Z,1031.67
2018-09-25T04:08:32.058Z,1031.66
2018-09-25T04:09:40.974Z,1031.62
2018-09-25T04:10:49.600Z,1031.64
2018-09-25T04:11:58.250Z,1031.65
2018-09-25T04:13:06.886Z,1031.7
2018-09-25T04:14:15.521Z,1031.73
2018-09-25T04:15:24.154Z,1031.73
2018-09-25T04:16:32.799Z,1031.74
2018-09-25T04:17:41.440Z,1031.77
2018-09-25T04:18:50.644Z,1031.79
2018-09-25T04:19:59.524Z,1031.8
2018-09-25T04:21:08.436Z,1031.83
2018-09-25T04:22:17.338Z,1031.83
2018-09-25T04:23:25.979Z,1031.83
2018-09-25T04:24:34.613Z,1031.84
2018-09-25T04:25:43.253Z,1031.83
2018-09-25T04:26:51.898Z,1031.82
2018-09-25T04:28:00.544Z,1031.86
2018-09-25T04:29:09.182Z,1031.87
2018-09-25T04:30:18.079Z,1031.88
2018-09-25T04:31:26.715Z,1031.88
2018-09-25T04:32:35.352Z,1031.9
2018-09-25T04:33:43.997Z,1031.91
2018-09-25T04:34:52.893Z,1031.93
2018-09-25T04:36:02.081Z,1031.93
2018-09-25T04:37:10.730Z,1031.96
2018-09-25T04:38:19.724Z,1031.95
2018-09-25T04:39:28.355Z,1031.94
2018-09-25T04:40:36.994Z,1031.95
2018-09-25T04:41:45.628Z,1031.94
2018-09-25T04:42:54.543Z,1031.93
2018-09-25T04:44:03.183Z,1032.02
2018-09-25T04:45:12.079Z,1032.01
2018-09-25T04:46:20.715Z,1032.01
2018-09-25T04:47:29.610Z,1032.02
2018-09-25T04:48:38.251Z,1032.01
2018-09-25T04:49:46.888Z,1032.06
2018-09-25T04:50:55.524Z,1032.06
2018-09-25T04:52:04.171Z,1032.05
2018-09-25T04:53:12.812Z,1032.06
2018-09-25T04:54:21.452Z,1032.08
2018-09-25T04:55:30.090Z,1032.08
2018-09-25T04:56:38.733Z,1032.08
2018-09-25T04:57:47.363Z,1032.06
2018-09-25T04:58:56.001Z,1032.08
2018-09-25T05:00:04.636Z,1032.06
2018-09-25T05:01:13.277Z,1032.05
2018-09-25T05:02:21.913Z,1032.02
2018-09-25T05:03:30.552Z,1032.07
2018-09-25T05:04:39.188Z,1032
2018-09-25T05:05:47.823Z,1032.02
2018-09-25T05:06:56.728Z,1032.07
2018-09-25T05:08:05.364Z,1032.09
2018-09-25T05:09:14.002Z,1032.14
2018-09-25T05:10:22.636Z,1032.18
2018-09-25T05:11:31.280Z,1032.14
2018-09-25T05:12:39.919Z,1032.16
2018-09-25T05:13:48.557Z,1032.16
2018-09-25T05:14:57.709Z,1032.18
2018-09-25T05:16:06.352Z,1032.15
2018-09-25T05:17:15.253Z,1032.14
2018-09-25T05:18:23.893Z,1032.16
2018-09-25T05:19:32.783Z,1032.08
2018-09-25T05:20:41.427Z,1032.13
2018-09-25T05:21:50.063Z,1032.14
2018-09-25T05:22:58.704Z,1032.13
2018-09-25T05:24:07.342Z,1032.14
2018-09-25T05:25:16.241Z,1032.16
2018-09-25T05:26:25.149Z,1032.11
2018-09-25T05:27:33.785Z,1032.13
2018-09-25T05:28:42.690Z,1032.12
2018-09-25T05:29:51.321Z,1032.1
2018-09-25T05:30:59.957Z,1032.11
2018-09-25T05:32:08.594Z,1032.13
2018-09-25T05:33:17.238Z,1032.16
2018-09-25T05:34:25.871Z,1032.13
2018-09-25T05:35:34.508Z,1032.16
2018-09-25T05:36:43.145Z,1032.13
2018-09-25T05:37:51.785Z,1032.21
2018-09-25T05:39:00.421Z,1032.16
2018-09-25T05:40:09.059Z,1032.22
2018-09-25T05:41:17.692Z,1032.23
2018-09-25T05:42:26.325Z,1032.23
2018-09-25T05:43:35.239Z,1032.25
2018-09-25T05:44:43.876Z,1032.29
2018-09-25T05:45:52.777Z,1032.28
2018-09-25T05:47:01.408Z,1032.3
2018-09-25T05:48:10.071Z,1032.31
2018-09-25T05:49:18.734Z,1032.31
2018-09-25T05:50:27.330Z,1032.35
2018-09-25T05:51:35.959Z,1032.35
2018-09-25T05:52:44.869Z,1032.38
2018-09-25T05:53:53.505Z,1032.41
2018-09-25T05:55:02.412Z,1032.4
2018-09-25T05:56:11.039Z,1032.4
2018-09-25T05:57:19.941Z,1032.4
2018-09-25T05:58:28.860Z,1032.43
2018-09-25T05:59:37.501Z,1032.45
2018-09-25T06:00:46.147Z,1032.48
2018-09-25T06:01:54.779Z,1032.54
2018-09-25T06:03:03.419Z,1032.52
2018-09-25T06:04:12.054Z,1032.56
2018-09-25T06:05:20.962Z,1032.59
2018-09-25T06:06:29.862Z,1032.58
2018-09-25T06:07:38.769Z,1032.56
2018-09-25T06:08:47.403Z,1032.59
2018-09-25T06:09:56.049Z,1032.55
2018-09-25T06:11:04.678Z,1032.49
2018-09-25T06:12:13.317Z,1032.49
2018-09-25T06:13:21.954Z,1032.49
2018-09-25T06:14:30.602Z,1032.45
2018-09-25T06:15:39.513Z,1032.49
2018-09-25T06:16:48.964Z,1032.47
2018-09-25T06:17:57.758Z,1032.47
2018-09-25T06:19:06.393Z,1032.5
2018-09-25T06:20:15.038Z,1032.56
2018-09-25T06:21:23.670Z,1032.59
2018-09-25T06:22:32.312Z,1032.64
2018-09-25T06:23:40.938Z,1032.67
2018-09-25T06:24:49.848Z,1032.67
2018-09-25T06:25:58.479Z,1032.67
2018-09-25T06:27:07.125Z,1032.67
2018-09-25T06:28:15.749Z,1032.65
2018-09-25T06:29:24.394Z,1032.67
2018-09-25T06:30:33.028Z,1032.65
2018-09-25T06:31:41.669Z,1032.71
2018-09-25T06:32:50.297Z,1032.72
2018-09-25T06:33:58.940Z,1032.76
2018-09-25T06:35:07.867Z,1032.75
2018-09-25T06:36:16.774Z,1032.79
2018-09-25T06:37:25.479Z,1032.77
2018-09-25T06:38:34.041Z,1032.77
2018-09-25T06:39:42.687Z,1032.81
2018-09-25T06:40:51.385Z,1032.79
2018-09-25T06:42:00.509Z,1032.82
2018-09-25T06:43:09.139Z,1032.82
2018-09-25T06:44:17.781Z,1032.84
2018-09-25T06:45:26.418Z,1032.83
2018-09-25T06:46:35.064Z,1032.86
2018-09-25T06:47:43.979Z,1032.84
2018-09-25T06:48:52.618Z,1032.87
2018-09-25T06:50:01.257Z,1032.86
2018-09-25T06:51:10.154Z,1032.91
2018-09-25T06:52:18.794Z,1032.94
2018-09-25T06:53:27.435Z,1032.95
2018-09-25T06:54:36.183Z,1032.94
2018-09-25T06:55:45.053Z,1032.98
2018-09-25T06:56:53.683Z,1032.95
2018-09-25T06:58:02.322Z,1032.99
2018-09-25T06:59:10.958Z,1032.95
2018-09-25T07:00:19.600Z,1032.99
2018-09-25T07:01:28.233Z,1032.96
2018-09-25T07:02:36.871Z,1032.99
2018-09-25T07:03:45.510Z,1033.03
2018-09-25T07:04:54.415Z,1033.06
2018-09-25T07:06:03.054Z,1033.05
2018-09-25T07:07:11.687Z,1033.02
2018-09-25T07:08:20.323Z,1033.05
2018-09-25T07:09:28.966Z,1033.07
2018-09-25T07:10:38.011Z,1033.08
2018-09-25T07:11:46.569Z,1033.11
2018-09-25T07:12:55.204Z,1033.16
2018-09-25T07:14:03.838Z,1033.17
2018-09-25T07:15:12.748Z,1033.16
2018-09-25T07:16:21.652Z,1033.18
2018-09-25T07:17:30.307Z,1033.16
2018-09-25T07:18:38.925Z,1033.17
2018-09-25T07:19:47.567Z,1033.18
2018-09-25T07:20:56.206Z,1033.16
2018-09-25T07:22:04.844Z,1033.17
2018-09-25T07:23:13.742Z,1033.19
2018-09-25T07:24:22.385Z,1033.23
2018-09-25T07:25:31.025Z,1033.28
2018-09-25T07:26:39.665Z,1033.25
2018-09-25T07:27:48.300Z,1033.28
2018-09-25T07:28:56.948Z,1033.27
2018-09-25T07:30:05.925Z,1033.32
2018-09-25T07:31:14.719Z,1033.3
2018-09-25T07:32:23.371Z,1033.32
2018-09-25T07:33:32.415Z,1033.32
2018-09-25T07:34:41.053Z,1033.32
2018-09-25T07:35:49.961Z,1033.29
2018-09-25T07:36:58.602Z,1033.32
2018-09-25T07:38:07.240Z,1033.38
2018-09-25T07:39:16.414Z,1033.36
2018-09-25T07:40:25.051Z,1033.4
2018-09-25T07:41:33.697Z,1033.4
2018-09-25T07:42:42.333Z,1033.4
2018-09-25T07:43:51.605Z,1033.39
2018-09-25T07:45:00.731Z,1033.44
2018-09-25T07:46:09.468Z,1033.44
2018-09-25T07:47:18.693Z,1033.45
2018-09-25T07:48:27.346Z,1033.47
2018-09-25T07:49:35.972Z,1033.47
2018-09-25T07:50:44.609Z,1033.48
2018-09-25T07:51:53.520Z,1033.49
2018-09-25T07:53:02.419Z,1033.55
2018-09-25T07:54:11.063Z,1033.54
2018-09-25T07:55:19.692Z,1033.54
2018-09-25T07:56:28.340Z,1033.58
2018-09-25T07:57:36.982Z,1033.62
2018-09-25T07:58:46.155Z,1033.61
2018-09-25T07:59:54.785Z,1033.61
2018-09-25T08:01:03.966Z,1033.67
2018-09-25T08:02:12.877Z,1033.59
2018-09-25T08:03:21.544Z,1033.59
2018-09-25T08:04:30.143Z,1033.58
2018-09-25T08:05:38.785Z,1033.64
2018-09-25T08:06:47.431Z,1033.66
2018-09-25T08:07:56.071Z,1033.71
2018-09-25T08:09:04.796Z,1033.71
2018-09-25T08:10:13.345Z,1033.69
2018-09-25T08:11:21.999Z,1033.69
2018-09-25T08:12:30.626Z,1033.71
2018-09-25T08:13:39.273Z,1033.75
2018-09-25T08:14:48.425Z,1033.75
2018-09-25T08:15:57.074Z,1033.76
2018-09-25T08:17:05.968Z,1033.76
2018-09-25T08:18:14.617Z,1033.74
2018-09-25T08:19:23.247Z,1033.7
2018-09-25T08:20:31.894Z,1033.7
2018-09-25T08:21:40.531Z,1033.72
2018-09-25T08:22:49.179Z,1033.66
2018-09-25T08:23:57.814Z,1033.71
2018-09-25T08:25:06.451Z,1033.7
2018-09-25T08:26:15.351Z,1033.76
2018-09-25T08:27:24.271Z,1033.73
2018-09-25T08:28:33.024Z,1033.76
2018-09-25T08:29:41.683Z,1033.75
2018-09-25T08:30:50.658Z,1033.78
2018-09-25T08:31:59.289Z,1033.77
2018-09-25T08:33:07.937Z,1033.77
2018-09-25T08:34:16.576Z,1033.78
2018-09-25T08:35:25.220Z,1033.8
2018-09-25T08:36:33.851Z,1033.81
2018-09-25T08:37:42.501Z,1033.8
2018-09-25T08:38:51.239Z,1033.84
2018-09-25T08:39:59.790Z,1033.87
2018-09-25T08:41:08.424Z,1033.86
2018-09-25T08:42:17.383Z,1033.88
2018-09-25T08:43:26.376Z,1033.89
2018-09-25T08:44:35.021Z,1033.88
2018-09-25T08:45:43.991Z,1033.91
2018-09-25T08:46:53.073Z,1033.97
2018-09-25T08:48:01.792Z,1033.96
2018-09-25T08:49:10.518Z,1033.95
2018-09-25T08:50:19.479Z,1034.03
2018-09-25T08:51:28.128Z,1034.05
2018-09-25T08:52:36.770Z,1034.04
2018-09-25T08:53:45.414Z,1034.08
2018-09-25T08:54:54.309Z,1034.05
2018-09-25T08:56:02.956Z,1034.04
2018-09-25T08:57:11.595Z,1034.04
2018-09-25T08:58:20.240Z,1034.04
2018-09-25T08:59:28.869Z,1034.06
2018-09-25T09:00:37.515Z,1034.06
2018-09-25T09:01:46.696Z,1034.05
2018-09-25T09:02:55.606Z,1034.05
2018-09-25T09:04:04.254Z,1034.05
2018-09-25T09:05:12.889Z,1034.06
2018-09-25T09:06:21.534Z,1034.01
2018-09-25T09:07:30.443Z,1034.01
2018-09-25T09:08:39.096Z,1033.98
2018-09-25T09:09:47.728Z,1033.99
2018-09-25T09:10:56.378Z,1033.98
2018-09-25T09:12:05.019Z,1034.01
2018-09-25T09:13:13.666Z,1034.02
2018-09-25T09:14:22.559Z,1034.07
2018-09-25T09:15:31.214Z,1034.04
2018-09-25T09:16:39.848Z,1034.06
2018-09-25T09:17:48.500Z,1034.08
2018-09-25T09:18:57.140Z,1034.07
2018-09-25T09:20:06.039Z,1034.05
2018-09-25T09:21:15.295Z,1034.06
2018-09-25T09:22:24.205Z,1034.11
2018-09-25T09:23:32.906Z,1034.14
2018-09-25T09:24:42.080Z,1034.18
2018-09-25T09:25:51.193Z,1034.14
2018-09-25T09:27:00.282Z,1034.13
2018-09-25T09:28:09.162Z,1034.17
2018-09-25T09:29:18.062Z,1034.09
2018-09-25T09:30:27.000Z,1034.09
2018-09-25T09:31:35.919Z,1034.04
2018-09-25T09:32:44.567Z,1034.02
2018-09-25T09:33:53.209Z,1034.02
2018-09-25T09:35:02.118Z,1034.04
2018-09-25T09:36:10.755Z,1034.03
2018-09-25T09:37:19.400Z,1034.06
2018-09-25T09:38:28.049Z,1034.06
2018-09-25T09:39:36.692Z,1034.05
2018-09-25T09:40:45.600Z,1034.06
2018-09-25T09:41:54.439Z,1034.06
2018-09-25T09:43:03.728Z,1034.08
2018-09-25T09:44:12.365Z,1034.09
2018-09-25T09:45:21.024Z,1034.05
2018-09-25T09:46:29.659Z,1034.04
2018-09-25T09:47:38.304Z,1034.02
2018-09-25T09:48:46.941Z,1034.02
2018-09-25T09:49:55.854Z,1034.01
2018-09-25T09:51:04.490Z,1034.04
2018-09-25T09:52:13.136Z,1034.04
2018-09-25T09:53:21.774Z,1034.07
2018-09-25T09:54:30.419Z,1034.07
2018-09-25T09:55:39.320Z,1034.05
2018-09-25T09:56:47.966Z,1034.06
2018-09-25T09:57:56.603Z,1034.08
2018-09-25T09:59:05.241Z,1034.07
2018-09-25T10:00:13.885Z,1034.05
2018-09-25T10:01:22.541Z,1034.05
2018-09-25T10:02:31.442Z,1034.04
2018-09-25T10:03:40.081Z,1034.07
2018-09-25T10:04:48.727Z,1034.08
2018-09-25T10:05:57.372Z,1034.11
2018-09-25T10:07:06.028Z,1034.15
2018-09-25T10:08:14.651Z,1034.14
2018-09-25T10:09:23.298Z,1034.17
2018-09-25T10:10:32.203Z,1034.15
2018-09-25T10:11:40.846Z,1034.19
2018-09-25T10:12:49.482Z,1034.18
2018-09-25T10:13:58.393Z,1034.2
2018-09-25T10:15:07.039Z,1034.27
2018-09-25T10:16:15.679Z,1034.24
2018-09-25T10:17:24.328Z,1034.24
2018-09-25T10:18:32.964Z,1034.23
2018-09-25T10:19:41.869Z,1034.2
2018-09-25T10:20:50.513Z,1034.23
2018-09-25T10:21:59.164Z,1034.26
2018-09-25T10:23:08.122Z,1034.25
2018-09-25T10:24:16.763Z,1034.32
2018-09-25T10:25:25.406Z,1034.26
2018-09-25T10:26:34.056Z,1034.3
2018-09-25T10:27:42.753Z,1034.32
2018-09-25T10:28:51.396Z,1034.32
2018-09-25T10:30:00.038Z,1034.32
2018-09-25T10:31:08.687Z,1034.29
2018-09-25T10:32:17.327Z,1034.26
2018-09-25T10:33:25.970Z,1034.29
2018-09-25T10:34:34.612Z,1034.27
2018-09-25T10:35:43.252Z,1034.26
2018-09-25T10:36:51.900Z,1034.3
2018-09-25T10:38:00.543Z,1034.23
2018-09-25T10:39:09.455Z,1034.19
2018-09-25T10:40:18.093Z,1034.19
2018-09-25T10:41:26.740Z,1034.21
2018-09-25T10:42:35.383Z,1034.2
2018-09-25T10:43:44.024Z,1034.22
2018-09-25T10:44:52.662Z,1034.15
2018-09-25T10:46:01.320Z,1034.14
2018-09-25T10:47:09.953Z,1034.14
2018-09-25T10:48:18.597Z,1034.18
2018-09-25T10:49:27.232Z,1034.14
2018-09-25T10:50:35.877Z,1034.15
2018-09-25T10:51:44.525Z,1034.13
2018-09-25T10:52:53.169Z,1034.21
2018-09-25T10:54:01.813Z,1034.2
2018-09-25T10:55:10.718Z,1034.2
2018-09-25T10:56:19.938Z,1034.2
2018-09-25T10:57:28.337Z,1034.18
2018-09-25T10:58:37.253Z,1034.2
2018-09-25T10:59:45.889Z,1034.21
2018-09-25T11:00:54.540Z,1034.16
2018-09-25T11:02:03.176Z,1034.22
2018-09-25T11:03:11.941Z,1034.19
2018-09-25T11:04:20.894Z,1034.19
2018-09-25T11:05:29.817Z,1034.18
2018-09-25T11:06:38.731Z,1034.21
2018-09-25T11:07:47.386Z,1034.19
2018-09-25T11:08:56.026Z,1034.21
2018-09-25T11:10:04.677Z,1034.25
2018-09-25T11:11:13.660Z,1034.26
2018-09-25T11:12:22.301Z,1034.28
2018-09-25T11:13:30.955Z,1034.26
2018-09-25T11:14:39.595Z,1034.29
2018-09-25T11:15:48.250Z,1034.26
2018-09-25T11:16:56.884Z,1034.31
2018-09-25T11:18:05.541Z,1034.29
2018-09-25T11:19:14.178Z,1034.32
2018-09-25T11:20:22.829Z,1034.32
2018-09-25T11:21:31.467Z,1034.28
2018-09-25T11:22:40.395Z,1034.28
2018-09-25T11:23:49.035Z,1034.25
2018-09-25T11:24:57.685Z,1034.28
2018-09-25T11:26:06.318Z,1034.24
2018-09-25T11:27:14.962Z,1034.24
2018-09-25T11:28:23.610Z,1034.22
2018-09-25T11:29:32.255Z,1034.18
2018-09-25T11:30:41.168Z,1034.19
2018-09-25T11:31:49.804Z,1034.15
2018-09-25T11:32:58.452Z,1034.06
2018-09-25T11:34:07.099Z,1034.09
2018-09-25T11:35:15.956Z,1034.06
2018-09-25T11:36:26.036Z,1034
2018-09-25T11:37:34.953Z,1033.99
2018-09-25T11:38:43.594Z,1033.96
2018-09-25T11:39:52.250Z,1033.92
2018-09-25T11:41:01.008Z,1033.93
2018-09-25T11:42:09.534Z,1033.93
2018-09-25T11:43:18.176Z,1033.96
2018-09-25T11:44:26.900Z,1033.9
2018-09-25T11:45:35.547Z,1033.97
2018-09-25T11:46:44.260Z,1033.94
2018-09-25T11:47:52.828Z,1033.98
2018-09-25T11:49:01.466Z,1033.88
2018-09-25T11:50:10.114Z,1033.87
2018-09-25T11:51:18.760Z,1033.88
2018-09-25T11:52:27.408Z,1033.91
2018-09-25T11:53:36.310Z,1033.92
2018-09-25T11:54:44.960Z,1033.94
2018-09-25T11:55:53.603Z,1033.95
2018-09-25T11:57:02.246Z,1033.97
2018-09-25T11:58:10.884Z,1033.96
2018-09-25T11:59:19.533Z,1033.99
2018-09-25T12:00:28.174Z,1034.02
2018-09-25T12:01:36.820Z,1033.98
2018-09-25T12:02:45.458Z,1034
2018-09-25T12:03:54.110Z,1033.98
2018-09-25T12:05:02.753Z,1033.96
2018-09-25T12:06:11.401Z,1033.94
2018-09-25T12:07:20.046Z,1033.83
2018-09-25T12:08:28.687Z,1033.83
2018-09-25T12:09:37.329Z,1033.87
2018-09-25T12:10:45.971Z,1033.9
2018-09-25T12:11:54.626Z,1033.91
2018-09-25T12:13:03.263Z,1033.91
2018-09-25T12:14:12.169Z,1033.94
2018-09-25T12:15:21.079Z,1033.94
2018-09-25T12:16:29.996Z,1033.91
2018-09-25T12:17:38.633Z,1033.94
2018-09-25T12:18:47.281Z,1033.88
2018-09-25T12:19:55.979Z,1033.88
2018-09-25T12:21:04.577Z,1033.84
2018-09-25T12:22:13.218Z,1033.75
2018-09-25T12:23:21.932Z,1033.77
2018-09-25T12:24:31.006Z,1033.74
2018-09-25T12:25:39.549Z,1033.73
2018-09-25T12:26:48.197Z,1033.7
2018-09-25T12:27:56.840Z,1033.68
2018-09-25T12:29:05.488Z,1033.71
2018-09-25T12:30:14.128Z,1033.66
2018-09-25T12:31:22.776Z,1033.66
2018-09-25T12:32:31.430Z,1033.67
2018-09-25T12:33:40.109Z,1033.66
2018-09-25T12:34:49.439Z,1033.62
2018-09-25T12:35:58.343Z,1033.63
2018-09-25T12:37:06.983Z,1033.63
2018-09-25T12:38:15.631Z,1033.59
2018-09-25T12:39:24.269Z,1033.64
2018-09-25T12:40:33.185Z,1033.6
2018-09-25T12:41:42.094Z,1033.59
2018-09-25T12:42:50.741Z,1033.58
2018-09-25T12:43:59.379Z,1033.57
2018-09-25T12:45:08.026Z,1033.47
2018-09-25T12:46:16.668Z,1033.47
2018-09-25T12:47:25.314Z,1033.43
2018-09-25T12:48:33.957Z,1033.46
2018-09-25T12:49:42.607Z,1033.39
2018-09-25T12:50:51.255Z,1033.36
2018-09-25T12:51:59.900Z,1033.36
2018-09-25T12:53:08.541Z,1033.33
2018-09-25T12:54:17.192Z,1033.32
2018-09-25T12:55:25.831Z,1033.29
2018-09-25T12:56:34.478Z,1033.33
2018-09-25T12:57:43.118Z,1033.32
2018-09-25T12:58:51.765Z,1033.33
2018-09-25T13:00:00.689Z,1033.29
2018-09-25T13:01:09.330Z,1033.31
2018-09-25T13:02:17.974Z,1033.31
2018-09-25T13:03:26.612Z,1033.34
2018-09-25T13:04:35.259Z,1033.34
2018-09-25T13:05:44.167Z,1033.35
2018-09-25T13:06:52.816Z,1033.32
2018-09-25T13:08:01.455Z,1033.31
2018-09-25T13:09:10.359Z,1033.28
2018-09-25T13:10:19.265Z,1033.3
2018-09-25T13:11:28.454Z,1033.3
2018-09-25T13:12:37.355Z,1033.3
2018-09-25T13:13:46.264Z,1033.34
2018-09-25T13:14:54.905Z,1033.28
2018-09-25T13:16:03.825Z,1033.29
2018-09-25T13:17:12.464Z,1033.24
2018-09-25T13:18:21.375Z,1033.21
2018-09-25T13:19:30.029Z,1033.22
2018-09-25T13:20:39.639Z,1033.24
2018-09-25T13:21:48.603Z,1033.26
2018-09-25T13:22:57.245Z,1033.28
2018-09-25T13:24:06.152Z,1033.3
2018-09-25T13:25:14.794Z,1033.29
2018-09-25T13:26:23.712Z,1033.33
2018-09-25T13:27:32.627Z,1033.31
2018-09-25T13:28:41.540Z,1033.28
2018-09-25T13:29:53.225Z,1033.26
2018-09-25T13:31:06.469Z,1033.3
2018-09-25T13:32:19.246Z,1033.29
2018-09-25T13:33:31.718Z,1033.31
2018-09-25T13:34:44.085Z,1033.29
2018-09-25T13:35:57.451Z,1033.26
2018-09-25T13:37:10.155Z,1033.28
2018-09-25T13:38:22.882Z,1033.27
2018-09-25T13:39:36.476Z,1033.23
2018-09-25T13:40:48.221Z,1033.19
2018-09-25T13:41:59.363Z,1033.18
2018-09-25T13:43:11.559Z,1033.17
2018-09-25T13:44:25.437Z,1033.14
2018-09-25T13:45:37.620Z,1033.13
2018-09-25T13:46:50.943Z,1033.12
2018-09-25T13:48:03.321Z,1033.13
2018-09-25T13:49:17.041Z,1033.09
2018-09-25T13:50:29.451Z,1033.04
2018-09-25T13:51:41.985Z,1033.07
2018-09-25T13:52:56.400Z,1033.11
2018-09-25T13:54:08.500Z,1033.17
2018-09-25T13:55:20.742Z,1033.17